KYKM/YKM METAR and TAF weather

Enter ICAO airport designator
Station Type Date Time Source
KYKM METAR 2021/07/29 17:53 UTC NOAA

KYKM 291753Z 00000KT 10SM CLR 31/08 A3003 RMK AO2 SLP159 T03110083 10311 20161 58010


Station Type Date Time Source
KYKM Decoded METAR 2021/07/29 17:53 UTC NOAA

YAKIMA AIR TERMINAL, WA, United States (KYKM) 46-34N 120-32W 324M
Jul 29, 2021 - 01:53 PM EDT / 2021.07.29 1753 UTC
Wind: Calm:0
Visibility: 10 mile(s):0
Sky conditions: clear
Temperature: 88.0 F (31.1 C)
Dew Point: 46.9 F (8.3 C)
Relative Humidity: 24%
Pressure (altimeter): 30.03 in. Hg (1016 hPa)
Pressure tendency: 0.03 inches (1.0 hPa) lower than three hours ago
ob: KYKM 291753Z 00000KT 10SM CLR 31/08 A3003 RMK AO2 SLP159 T03110083 10311 20161 58010
cycle: 18

Station Type Date Time Source
KYKM TAF 2021/07/29 18:30 UTC NOAA

TAF KYKM 291729Z 2918/3018 VRB05KT P6SM SKC
FM300200 29007KT P6SM SCT250
FM301200 26005KT P6SM SCT250

Example: see airport list